Observations for AUCKLAND INTL A, New Zealand (NZAA)

NZAA 130830Z AUTO 08002KT 9999 NCD 19/16 Q1015 NOSIG
NZAA 130800Z AUTO 04005KT 9999 SCT033/// 19/15 Q1015 NOSIG  
NZAA 130730Z AUTO 05005KT 010V080 9999 NCD 20/15 Q1014 NOSIG
NZAA 130700Z AUTO 06003KT 9999 NCD 21/14 Q1014 NOSIG
NZAA 130630Z AUTO 35004KT 280V060 9999 FEW037/// 21/13 Q1014 NOSIG  
NZAA 130600Z AUTO 23003KT 9999 BKN037/// 22/16 Q1013 NOSIG  
NZAA 130530Z AUTO 21007KT 170V240 9999 FEW050/// 22/16 Q1013 NOSIG  
NZAA 130500Z AUTO 21007KT 180V240 9999 SCT042/// BKN050/// 23/16 Q1013 NOSIG
NZAA 130430Z AUTO 22005KT 090V020 9999 BKN039/// 24/17 Q1013 NOSIG  
NZAA 130400Z AUTO 19003KT 9999 BKN039/// BKN046/// 23/16 Q1013 NOSIG
NZAA 130330Z AUTO 34006KT 270V110 9999 SCT039/// BKN049/// 24/15 Q1013 NOSIG
NZAA 130300Z AUTO 31009KT 290V360 9999 SCT042/// BKN050/// 24/15 Q1013 NOSIG
NZAA 130230Z AUTO 28010KT 240V300 9999 BKN041/// 23/15 Q1013 NOSIG  
NZAA 130200Z AUTO 31011KT 9999 BKN046/// 23/15 Q1014 NOSIG  
NZAA 130130Z AUTO 31008KT 270V010 9999 BKN046/// 23/14 Q1013 TEMPO FM0200 6000 SHRA 
NZAA 130100Z AUTO 32008KT 260V010 9999 BKN045/// BKN055/// 24/16 Q1014  
NZAA 130030Z AUTO 30009KT 270V340 9999 SCT038/// OVC048/// 22/15 Q1014 TEMPO FM0200 6000 SHRA   
NZAA 130000Z AUTO 34005KT 290V050 9999 FEW034/// OVC044/// 22/14 Q1014 NOSIG
NZAA 122330Z AUTO 31007KT 250V360 9999 FEW034/// BKN047/// 22/14 Q1014 NOSIG
NZAA 122300Z AUTO 30005KT 250V010 9999 SCT033/// OVC047/// 22/14 Q1014 NOSIG
NZAA 122230Z AUTO 35004KT 260V030 9999 SCT039/// OVC049/// 21/14 Q1014 NOSIG
NZAA 122200Z AUTO 32005KT 9999 BKN038/// OVC047/// 20/14 Q1014 NOSIG
NZAA 122130Z AUTO 31005KT 260V350 9999 SCT030/// OVC045/// 20/14 Q1014 NOSIG
NZAA 122100Z AUTO 29004KT 250V010 9999 SCT026/// OVC039/// 20/15 Q1014 NOSIG
NZAA 122030Z AUTO 05002KT 9999 BKN027/// BKN041/// OVC080/// 21/15 Q1014 NOSIG  
NZAA 122000Z AUTO 06003KT 9999 FEW022/// OVC085/// 20/15 Q1014 NOSIG
NZAA 121930Z AUTO 04003KT 9999 BKN060/// BKN085/// 20/15 Q1014 NOSIG
NZAA 121900Z AUTO 01001KT 9999 BKN060/// OVC090/// 18/15 Q1014 NOSIG
NZAA 121830Z AUTO 07002KT 9999 FEW046/// SCT060/// OVC085/// 18/15 Q1014 NOSIG  
NZAA 121800Z AUTO 04001KT 9999 BKN046/// BKN085/// 17/15 Q1013 NOSIG
NZAA 121730Z AUTO 07001KT 9999 FEW043/// SCT070/// BKN085/// 17/14 Q1013 NOSIG  
NZAA 121700Z AUTO 04002KT 9999 -RA BKN046/// OVC065/// 17/15 Q1013 NOSIG
NZAA 121630Z AUTO 36001KT 9999 -RA FEW037/// BKN050/// OVC075/// 17/14 Q1013 NOSIG  
NZAA 121600Z AUTO 36001KT 9999 SCT038/// BKN065/// BKN080/// 17/14 Q1013 NOSIG  
NZAA 121530Z AUTO 00000KT 9999 SCT038/// SCT050/// OVC080/// 17/14 Q1012 NOSIG  
NZAA 121500Z AUTO 00000KT 9999 FEW060/// OVC080/// 17/14 Q1012 NOSIG
NZAA 121430Z AUTO 09002KT 9999 OVC080/// 17/14 Q1012 NOSIG  
NZAA 121400Z AUTO 11003KT 9999 OVC080/// 17/14 Q1012 NOSIG  
NZAA 121330Z AUTO 10004KT 9999 OVC080/// 17/15 Q1012 NOSIG  
NZAA 121300Z AUTO 10003KT 9999 OVC080/// 17/15 Q1012 NOSIG  
NZAA 121230Z AUTO 10003KT 9999 BKN080/// 17/14 Q1013 NOSIG  
NZAA 121200Z AUTO 06001KT 9999 OVC080/// 17/15 Q1013 NOSIG  
NZAA 121130Z AUTO 07002KT 9999 OVC075/// 17/15 Q1013 NOSIG  
NZAA 121100Z AUTO 15002KT 9999 OVC075/// 17/15 Q1013 NOSIG  
NZAA 121030Z AUTO 14001KT 9999 FEW055/// BKN075/// 17/15 Q1013 NOSIG
NZAA 121000Z AUTO 16001KT 9999 SCT039/// BKN060/// OVC080/// 17/14 Q1013 NOSIG  
NZAA 120930Z AUTO 12002KT 9999 SCT038/// BKN060/// 18/14 Q1013 NOSIG
NZAA 120900Z AUTO 09001KT 9999 SCT035/// BKN060/// OVC075/// 18/15 Q1013 NOSIG  
NZAA 120830Z AUTO 23003KT 9999 BKN055/// 18/14 Q1013 NOSIG